sensor_id;sensor_type;location;lat;lon;timestamp;pressure;altitude;pressure_sealevel;temperature
78859;BMP280;68210;52.032;4.634;2023-07-22T00:01:41;101243.25;;;19.82
78859;BMP280;68210;52.032;4.634;2023-07-22T00:03:41;101249.50;;;19.90
78859;BMP280;68210;52.032;4.634;2023-07-22T00:05:42;101247.56;;;19.87
78859;BMP280;68210;52.032;4.634;2023-07-22T00:07:49;101249.94;;;19.88
78859;BMP280;68210;52.032;4.634;2023-07-22T00:09:49;101247.91;;;19.96
78859;BMP280;68210;52.032;4.634;2023-07-22T00:11:50;101240.44;;;19.96
78859;BMP280;68210;52.032;4.634;2023-07-22T00:13:51;101241.66;;;19.85
78859;BMP280;68210;52.032;4.634;2023-07-22T00:15:55;101236.56;;;19.80
78859;BMP280;68210;52.032;4.634;2023-07-22T00:17:56;101244.84;;;19.77
78859;BMP280;68210;52.032;4.634;2023-07-22T00:19:56;101236.25;;;19.64
78859;BMP280;68210;52.032;4.634;2023-07-22T00:21:56;101234.25;;;19.68
78859;BMP280;68210;52.032;4.634;2023-07-22T00:23:57;101221.66;;;19.74
78859;BMP280;68210;52.032;4.634;2023-07-22T00:25:57;101228.75;;;19.75
78859;BMP280;68210;52.032;4.634;2023-07-22T00:27:57;101220.25;;;19.35
78859;BMP280;68210;52.032;4.634;2023-07-22T00:29:58;101224.13;;;19.45
78859;BMP280;68210;52.032;4.634;2023-07-22T00:31:58;101223.75;;;19.46
78859;BMP280;68210;52.032;4.634;2023-07-22T00:33:58;101222.53;;;19.54
78859;BMP280;68210;52.032;4.634;2023-07-22T00:35:59;101222.91;;;19.56
78859;BMP280;68210;52.032;4.634;2023-07-22T00:38:02;101225.66;;;19.59
78859;BMP280;68210;52.032;4.634;2023-07-22T00:40:04;101226.41;;;19.63
78859;BMP280;68210;52.032;4.634;2023-07-22T00:42:06;101225.19;;;19.71
78859;BMP280;68210;52.032;4.634;2023-07-22T00:44:08;101227.59;;;19.66
78859;BMP280;68210;52.032;4.634;2023-07-22T00:46:08;101228.78;;;19.65
78859;BMP280;68210;52.032;4.634;2023-07-22T00:48:09;101223.28;;;19.58
78859;BMP280;68210;52.032;4.634;2023-07-22T00:50:10;101228.84;;;19.44
78859;BMP280;68210;52.032;4.634;2023-07-22T00:52:10;101218.63;;;19.51
78859;BMP280;68210;52.032;4.634;2023-07-22T00:54:11;101220.16;;;19.59
78859;BMP280;68210;52.032;4.634;2023-07-22T00:56:11;101202.88;;;19.59
78859;BMP280;68210;52.032;4.634;2023-07-22T00:58:11;101211.50;;;19.64
78859;BMP280;68210;52.032;4.634;2023-07-22T01:00:12;101213.81;;;19.69
78859;BMP280;68210;52.032;4.634;2023-07-22T01:02:12;101213.03;;;19.72
78859;BMP280;68210;52.032;4.634;2023-07-22T01:04:14;101206.72;;;19.79
78859;BMP280;68210;52.032;4.634;2023-07-22T01:06:16;101205.16;;;19.81
78859;BMP280;68210;52.032;4.634;2023-07-22T01:08:18;101204.66;;;19.93
78859;BMP280;68210;52.032;4.634;2023-07-22T01:10:18;101203.94;;;19.82
78859;BMP280;68210;52.032;4.634;2023-07-22T01:12:20;101196.56;;;19.65
78859;BMP280;68210;52.032;4.634;2023-07-22T01:14:20;101193.84;;;19.55
78859;BMP280;68210;52.032;4.634;2023-07-22T01:16:20;101192.59;;;19.66
78859;BMP280;68210;52.032;4.634;2023-07-22T01:18:22;101193.38;;;19.70
78859;BMP280;68210;52.032;4.634;2023-07-22T01:20:23;101191.13;;;19.51
78859;BMP280;68210;52.032;4.634;2023-07-22T01:22:24;101199.44;;;19.38
78859;BMP280;68210;52.032;4.634;2023-07-22T01:24:24;101195.94;;;19.23
78859;BMP280;68210;52.032;4.634;2023-07-22T01:26:25;101201.41;;;19.30
78859;BMP280;68210;52.032;4.634;2023-07-22T01:28:25;101199.41;;;19.34
78859;BMP280;68210;52.032;4.634;2023-07-22T01:30:26;101191.25;;;19.17
78859;BMP280;68210;52.032;4.634;2023-07-22T01:32:27;101192.84;;;19.11
78859;BMP280;68210;52.032;4.634;2023-07-22T01:34:28;101189.66;;;19.19
78859;BMP280;68210;52.032;4.634;2023-07-22T01:36:30;101186.09;;;19.26
78859;BMP280;68210;52.032;4.634;2023-07-22T01:38:30;101184.94;;;19.20
78859;BMP280;68210;52.032;4.634;2023-07-22T01:40:31;101185.75;;;19.17
78859;BMP280;68210;52.032;4.634;2023-07-22T01:42:31;101183.38;;;19.22
78859;BMP280;68210;52.032;4.634;2023-07-22T01:44:32;101184.47;;;19.39
78859;BMP280;68210;52.032;4.634;2023-07-22T01:46:32;101189.22;;;19.35
78859;BMP280;68210;52.032;4.634;2023-07-22T01:48:33;101187.69;;;19.27
78859;BMP280;68210;52.032;4.634;2023-07-22T01:50:33;101175.81;;;19.44
78859;BMP280;68210;52.032;4.634;2023-07-22T01:52:34;101171.47;;;19.49
78859;BMP280;68210;52.032;4.634;2023-07-22T01:54:34;101174.63;;;19.51
78859;BMP280;68210;52.032;4.634;2023-07-22T01:56:35;101180.53;;;19.47
78859;BMP280;68210;52.032;4.634;2023-07-22T01:58:36;101174.63;;;19.45
78859;BMP280;68210;52.032;4.634;2023-07-22T02:00:36;101178.59;;;19.37
78859;BMP280;68210;52.032;4.634;2023-07-22T02:02:37;101169.88;;;19.55
78859;BMP280;68210;52.032;4.634;2023-07-22T02:04:37;101172.69;;;19.42
78859;BMP280;68210;52.032;4.634;2023-07-22T02:06:38;101168.78;;;19.43
78859;BMP280;68210;52.032;4.634;2023-07-22T02:08:38;101172.63;;;19.52
78859;BMP280;68210;52.032;4.634;2023-07-22T02:10:39;101173.03;;;19.50
78859;BMP280;68210;52.032;4.634;2023-07-22T02:12:39;101169.88;;;19.52
78859;BMP280;68210;52.032;4.634;2023-07-22T02:14:39;101166.75;;;19.53
78859;BMP280;68210;52.032;4.634;2023-07-22T02:16:40;101166.38;;;19.51
78859;BMP280;68210;52.032;4.634;2023-07-22T02:18:40;101170.75;;;19.35
78859;BMP280;68210;52.032;4.634;2023-07-22T02:20:42;101164.53;;;19.17
78859;BMP280;68210;52.032;4.634;2023-07-22T02:22:43;101166.47;;;19.27
78859;BMP280;68210;52.032;4.634;2023-07-22T02:24:43;101159.72;;;19.39
78859;BMP280;68210;52.032;4.634;2023-07-22T02:26:43;101155.44;;;19.38
78859;BMP280;68210;52.032;4.634;2023-07-22T02:28:45;101155.38;;;19.48
78859;BMP280;68210;52.032;4.634;2023-07-22T02:30:51;101163.94;;;19.60
78859;BMP280;68210;52.032;4.634;2023-07-22T02:32:52;101148.63;;;19.59
78859;BMP280;68210;52.032;4.634;2023-07-22T02:34:52;101151.03;;;19.50
78859;BMP280;68210;52.032;4.634;2023-07-22T02:36:53;101146.31;;;19.48
78859;BMP280;68210;52.032;4.634;2023-07-22T02:38:53;101153.44;;;19.42
78859;BMP280;68210;52.032;4.634;2023-07-22T02:40:53;101149.06;;;19.48
78859;BMP280;68210;52.032;4.634;2023-07-22T02:42:54;101148.34;;;19.37
78859;BMP280;68210;52.032;4.634;2023-07-22T02:44:54;101149.94;;;19.38
78859;BMP280;68210;52.032;4.634;2023-07-22T02:46:54;101139.38;;;19.29
78859;BMP280;68210;52.032;4.634;2023-07-22T02:48:55;101146.38;;;19.41
78859;BMP280;68210;52.032;4.634;2023-07-22T02:50:55;101143.28;;;19.28
78859;BMP280;68210;52.032;4.634;2023-07-22T02:52:55;101144.16;;;19.01
78859;BMP280;68210;52.032;4.634;2023-07-22T02:55:13;101144.97;;;18.91
78859;BMP280;68210;52.032;4.634;2023-07-22T02:57:13;101144.94;;;19.02
78859;BMP280;68210;52.032;4.634;2023-07-22T02:59:14;101148.13;;;19.00
78859;BMP280;68210;52.032;4.634;2023-07-22T03:01:14;101143.41;;;18.84
78859;BMP280;68210;52.032;4.634;2023-07-22T03:03:15;101143.41;;;18.90
78859;BMP280;68210;52.032;4.634;2023-07-22T03:05:15;101145.00;;;18.95
78859;BMP280;68210;52.032;4.634;2023-07-22T03:07:16;101145.31;;;19.07
78859;BMP280;68210;52.032;4.634;2023-07-22T03:09:17;101145.72;;;19.09
78859;BMP280;68210;52.032;4.634;2023-07-22T03:11:17;101141.81;;;18.96
78859;BMP280;68210;52.032;4.634;2023-07-22T03:13:17;101149.28;;;18.99
78859;BMP280;68210;52.032;4.634;2023-07-22T03:15:18;101145.75;;;18.99
78859;BMP280;68210;52.032;4.634;2023-07-22T03:17:19;101141.81;;;19.03
78859;BMP280;68210;52.032;4.634;2023-07-22T03:19:19;101145.72;;;19.09
78859;BMP280;68210;52.032;4.634;2023-07-22T03:21:20;101153.94;;;19.19
78859;BMP280;68210;52.032;4.634;2023-07-22T03:23:20;101150.41;;;19.16
78859;BMP280;68210;52.032;4.634;2023-07-22T03:25:20;101145.66;;;19.30
78859;BMP280;68210;52.032;4.634;2023-07-22T03:27:21;101151.19;;;19.16
78859;BMP280;68210;52.032;4.634;2023-07-22T03:29:21;101156.72;;;19.09
78859;BMP280;68210;52.032;4.634;2023-07-22T03:31:24;101146.47;;;19.17
78859;BMP280;68210;52.032;4.634;2023-07-22T03:33:24;101155.91;;;19.12
78859;BMP280;68210;52.032;4.634;2023-07-22T03:35:25;101167.28;;;19.17
78859;BMP280;68210;52.032;4.634;2023-07-22T03:37:25;101166.50;;;19.17
78859;BMP280;68210;52.032;4.634;2023-07-22T03:39:25;101166.94;;;19.05
78859;BMP280;68210;52.032;4.634;2023-07-22T03:41:26;101166.13;;;19.12
78859;BMP280;68210;52.032;4.634;2023-07-22T03:43:26;101168.09;;;19.11
78859;BMP280;68210;52.032;4.634;2023-07-22T03:45:26;101161.44;;;19.05
78859;BMP280;68210;52.032;4.634;2023-07-22T03:47:27;101170.91;;;18.97
78859;BMP280;68210;52.032;4.634;2023-07-22T03:49:27;101166.16;;;19.01
78859;BMP280;68210;52.032;4.634;2023-07-22T03:51:28;101165.78;;;18.92
78859;BMP280;68210;52.032;4.634;2023-07-22T03:53:28;101170.09;;;18.83
78859;BMP280;68210;52.032;4.634;2023-07-22T03:55:28;101160.66;;;18.81
78859;BMP280;68210;52.032;4.634;2023-07-22T03:57:29;101167.78;;;18.68
78859;BMP280;68210;52.032;4.634;2023-07-22T03:59:30;101170.91;;;18.70
78859;BMP280;68210;52.032;4.634;2023-07-22T04:01:30;101164.22;;;18.67
78859;BMP280;68210;52.032;4.634;2023-07-22T04:03:30;101164.63;;;18.76
78859;BMP280;68210;52.032;4.634;2023-07-22T04:05:31;101163.44;;;18.84
78859;BMP280;68210;52.032;4.634;2023-07-22T04:07:31;101159.13;;;18.76
78859;BMP280;68210;52.032;4.634;2023-07-22T04:09:32;101162.25;;;18.75
78859;BMP280;68210;52.032;4.634;2023-07-22T04:11:32;101168.97;;;18.63
78859;BMP280;68210;52.032;4.634;2023-07-22T04:13:32;101146.56;;;18.72
78859;BMP280;68210;52.032;4.634;2023-07-22T04:15:33;101159.09;;;18.83
78859;BMP280;68210;52.032;4.634;2023-07-22T04:17:33;101160.72;;;18.53
78859;BMP280;68210;52.032;4.634;2023-07-22T04:19:33;101157.97;;;18.60
78859;BMP280;68210;52.032;4.634;2023-07-22T04:21:34;101159.13;;;18.59
78859;BMP280;68210;52.032;4.634;2023-07-22T04:23:34;101156.78;;;18.68
78859;BMP280;68210;52.032;4.634;2023-07-22T04:25:44;101151.28;;;18.75
78859;BMP280;68210;52.032;4.634;2023-07-22T04:27:45;101155.59;;;18.76
78859;BMP280;68210;52.032;4.634;2023-07-22T04:29:45;101155.59;;;18.69
78859;BMP280;68210;52.032;4.634;2023-07-22T04:31:46;101152.50;;;18.46
78859;BMP280;68210;52.032;4.634;2023-07-22T04:33:46;101156.81;;;18.33
78859;BMP280;68210;52.032;4.634;2023-07-22T04:35:46;101152.09;;;18.37
78859;BMP280;68210;52.032;4.634;2023-07-22T04:37:47;101160.72;;;18.32
78859;BMP280;68210;52.032;4.634;2023-07-22T04:39:50;101163.88;;;18.27
78859;BMP280;68210;52.032;4.634;2023-07-22T04:41:51;101163.88;;;18.21
78859;BMP280;68210;52.032;4.634;2023-07-22T04:43:51;101163.09;;;18.24
78859;BMP280;68210;52.032;4.634;2023-07-22T04:45:52;101152.88;;;18.21
78859;BMP280;68210;52.032;4.634;2023-07-22T04:47:52;101164.66;;;18.14
78859;BMP280;68210;52.032;4.634;2023-07-22T04:49:53;101156.03;;;18.16
78859;BMP280;68210;52.032;4.634;2023-07-22T04:51:53;101159.56;;;18.20
78859;BMP280;68210;52.032;4.634;2023-07-22T04:53:53;101162.28;;;18.16
78859;BMP280;68210;52.032;4.634;2023-07-22T04:55:54;101157.59;;;18.20
78859;BMP280;68210;52.032;4.634;2023-07-22T04:57:55;101161.47;;;18.02
78859;BMP280;68210;52.032;4.634;2023-07-22T04:59:55;101162.28;;;18.06
78859;BMP280;68210;52.032;4.634;2023-07-22T05:01:56;101156.00;;;18.05
78859;BMP280;68210;52.032;4.634;2023-07-22T05:03:56;101156.00;;;17.98
78859;BMP280;68210;52.032;4.634;2023-07-22T05:05:58;101147.41;;;18.10
78859;BMP280;68210;52.032;4.634;2023-07-22T05:07:58;101151.31;;;18.09
78859;BMP280;68210;52.032;4.634;2023-07-22T05:09:58;101159.56;;;18.13
78859;BMP280;68210;52.032;4.634;2023-07-22T05:11:59;101163.88;;;18.03
78859;BMP280;68210;52.032;4.634;2023-07-22T05:13:59;101171.63;;;17.77
78859;BMP280;68210;52.032;4.634;2023-07-22T05:15:59;101166.88;;;17.67
78859;BMP280;68210;52.032;4.634;2023-07-22T05:18:00;101161.44;;;17.81
78859;BMP280;68210;52.032;4.634;2023-07-22T05:20:00;101161.81;;;17.76
78859;BMP280;68210;52.032;4.634;2023-07-22T05:22:01;101158.31;;;17.79
78859;BMP280;68210;52.032;4.634;2023-07-22T05:24:01;101153.22;;;17.92
78859;BMP280;68210;52.032;4.634;2023-07-22T05:26:02;101161.81;;;17.69
78859;BMP280;68210;52.032;4.634;2023-07-22T05:28:02;101157.44;;;17.55
78859;BMP280;68210;52.032;4.634;2023-07-22T05:30:03;101158.66;;;17.67
78859;BMP280;68210;52.032;4.634;2023-07-22T05:32:04;101163.00;;;17.79
78859;BMP280;68210;52.032;4.634;2023-07-22T05:34:04;101163.78;;;17.86
78859;BMP280;68210;52.032;4.634;2023-07-22T05:36:05;101159.06;;;17.69
78859;BMP280;68210;52.032;4.634;2023-07-22T05:38:05;101155.09;;;17.60
78859;BMP280;68210;52.032;4.634;2023-07-22T05:40:06;101154.34;;;17.66
78859;BMP280;68210;52.032;4.634;2023-07-22T05:42:07;101154.38;;;17.87
78859;BMP280;68210;52.032;4.634;2023-07-22T05:44:08;101159.91;;;17.91
78859;BMP280;68210;52.032;4.634;2023-07-22T05:46:08;101163.38;;;17.70
78859;BMP280;68210;52.032;4.634;2023-07-22T05:48:08;101155.91;;;17.71
78859;BMP280;68210;52.032;4.634;2023-07-22T05:50:09;101156.34;;;17.80
78859;BMP280;68210;52.032;4.634;2023-07-22T05:52:09;101155.19;;;17.94
78859;BMP280;68210;52.032;4.634;2023-07-22T05:54:10;101152.88;;;18.07
78859;BMP280;68210;52.032;4.634;2023-07-22T05:56:10;101158.78;;;18.09
78859;BMP280;68210;52.032;4.634;2023-07-22T05:58:17;101152.91;;;18.17
78859;BMP280;68210;52.032;4.634;2023-07-22T06:00:18;101154.06;;;18.26
78859;BMP280;68210;52.032;4.634;2023-07-22T06:02:19;101158.38;;;18.34
78859;BMP280;68210;52.032;4.634;2023-07-22T06:04:19;101152.50;;;18.46
78859;BMP280;68210;52.032;4.634;2023-07-22T06:06:19;101155.22;;;18.43
78859;BMP280;68210;52.032;4.634;2023-07-22T06:08:20;101151.34;;;18.33
78859;BMP280;68210;52.032;4.634;2023-07-22T06:10:20;101155.22;;;18.32
78859;BMP280;68210;52.032;4.634;2023-07-22T06:12:20;101147.81;;;18.33
78859;BMP280;68210;52.032;4.634;2023-07-22T06:14:21;101145.84;;;18.37
78859;BMP280;68210;52.032;4.634;2023-07-22T06:16:21;101150.91;;;18.25
78859;BMP280;68210;52.032;4.634;2023-07-22T06:18:22;101150.53;;;18.23
78859;BMP280;68210;52.032;4.634;2023-07-22T06:20:23;101153.69;;;18.31
78859;BMP280;68210;52.032;4.634;2023-07-22T06:22:24;101152.91;;;18.27
78859;BMP280;68210;52.032;4.634;2023-07-22T06:24:24;101155.25;;;18.26
78859;BMP280;68210;52.032;4.634;2023-07-22T06:26:24;101148.97;;;18.25
78859;BMP280;68210;52.032;4.634;2023-07-22T06:28:25;101148.97;;;18.35
78859;BMP280;68210;52.032;4.634;2023-07-22T06:30:25;101147.00;;;18.53
78859;BMP280;68210;52.032;4.634;2023-07-22T06:32:26;101155.22;;;18.53
78859;BMP280;68210;52.032;4.634;2023-07-22T06:34:26;101145.81;;;18.57
78859;BMP280;68210;52.032;4.634;2023-07-22T06:36:26;101137.97;;;18.46
78859;BMP280;68210;52.032;4.634;2023-07-22T06:38:27;101136.03;;;18.46
78859;BMP280;68210;52.032;4.634;2023-07-22T06:40:27;101139.94;;;18.56
78859;BMP280;68210;52.032;4.634;2023-07-22T06:42:28;101139.53;;;18.60
78859;BMP280;68210;52.032;4.634;2023-07-22T06:44:28;101142.66;;;18.69
78859;BMP280;68210;52.032;4.634;2023-07-22T06:46:28;101133.22;;;18.77
78859;BMP280;68210;52.032;4.634;2023-07-22T06:48:29;101130.91;;;18.65
78859;BMP280;68210;52.032;4.634;2023-07-22T06:50:29;101134.75;;;18.88
78859;BMP280;68210;52.032;4.634;2023-07-22T06:52:32;101136.34;;;18.89
78859;BMP280;68210;52.032;4.634;2023-07-22T06:54:33;101144.16;;;19.08
78859;BMP280;68210;52.032;4.634;2023-07-22T06:56:34;101130.81;;;19.03
78859;BMP280;68210;52.032;4.634;2023-07-22T06:58:34;101136.31;;;19.03
78859;BMP280;68210;52.032;4.634;2023-07-22T07:00:35;101129.69;;;18.97
78859;BMP280;68210;52.032;4.634;2023-07-22T07:02:35;101133.59;;;18.83
78859;BMP280;68210;52.032;4.634;2023-07-22T07:04:36;101133.97;;;18.91
78859;BMP280;68210;52.032;4.634;2023-07-22T07:06:36;101132.78;;;18.99
78859;BMP280;68210;52.032;4.634;2023-07-22T07:08:38;101133.22;;;18.94
78859;BMP280;68210;52.032;4.634;2023-07-22T07:10:38;101137.13;;;18.93
78859;BMP280;68210;52.032;4.634;2023-07-22T07:12:39;101144.19;;;18.98
78859;BMP280;68210;52.032;4.634;2023-07-22T07:14:40;101139.03;;;19.10
78859;BMP280;68210;52.032;4.634;2023-07-22T07:16:40;101150.03;;;19.10
78859;BMP280;68210;52.032;4.634;2023-07-22T07:18:41;101148.06;;;19.07
78859;BMP280;68210;52.032;4.634;2023-07-22T07:20:41;101143.31;;;19.18
78859;BMP280;68210;52.032;4.634;2023-07-22T07:22:42;101145.75;;;19.06
78859;BMP280;68210;52.032;4.634;2023-07-22T07:24:43;101140.22;;;19.09
78859;BMP280;68210;52.032;4.634;2023-07-22T07:26:43;101148.03;;;19.24
78859;BMP280;68210;52.032;4.634;2023-07-22T07:28:44;101144.09;;;19.25
78859;BMP280;68210;52.032;4.634;2023-07-22T07:30:44;101134.63;;;19.33
78859;BMP280;68210;52.032;4.634;2023-07-22T07:32:45;101132.97;;;19.49
78859;BMP280;68210;52.032;4.634;2023-07-22T07:34:45;101142.38;;;19.52
78859;BMP280;68210;52.032;4.634;2023-07-22T07:36:46;101139.28;;;19.47
78859;BMP280;68210;52.032;4.634;2023-07-22T07:38:46;101138.50;;;19.46
78859;BMP280;68210;52.032;4.634;2023-07-22T07:40:55;101142.81;;;19.44
78859;BMP280;68210;52.032;4.634;2023-07-22T07:42:55;101130.13;;;19.63
78859;BMP280;68210;52.032;4.634;2023-07-22T07:44:56;101139.31;;;19.36
78859;BMP280;68210;52.032;4.634;2023-07-22T07:46:56;101137.03;;;19.21
78859;BMP280;68210;52.032;4.634;2023-07-22T07:48:58;101140.16;;;19.30
78859;BMP280;68210;52.032;4.634;2023-07-22T07:51:02;101129.16;;;19.30
78859;BMP280;68210;52.032;4.634;2023-07-22T07:53:03;101130.56;;;19.58
78859;BMP280;68210;52.032;4.634;2023-07-22T07:55:04;101130.22;;;19.49
78859;BMP280;68210;52.032;4.634;2023-07-22T07:57:05;101129.38;;;19.56
78859;BMP280;68210;52.032;4.634;2023-07-22T07:59:05;101118.00;;;19.57
78859;BMP280;68210;52.032;4.634;2023-07-22T08:01:09;101125.41;;;19.64
78859;BMP280;68210;52.032;4.634;2023-07-22T08:03:09;101127.34;;;19.70
78859;BMP280;68210;52.032;4.634;2023-07-22T08:05:10;101126.44;;;19.94
78859;BMP280;68210;52.032;4.634;2023-07-22T08:07:15;101120.06;;;20.04
78859;BMP280;68210;52.032;4.634;2023-07-22T08:09:15;101114.84;;;20.16
78859;BMP280;68210;52.032;4.634;2023-07-22T08:11:19;101119.16;;;20.20
78859;BMP280;68210;52.032;4.634;2023-07-22T08:13:19;101118.91;;;20.48
78859;BMP280;68210;52.032;4.634;2023-07-22T08:15:20;101117.66;;;20.92
78859;BMP280;68210;52.032;4.634;2023-07-22T08:17:20;101104.66;;;21.26
78859;BMP280;68210;52.032;4.634;2023-07-22T08:19:21;101109.34;;;21.58
78859;BMP280;68210;52.032;4.634;2023-07-22T08:21:21;101110.34;;;21.71
78859;BMP280;68210;52.032;4.634;2023-07-22T08:23:22;101108.31;;;21.75
78859;BMP280;68210;52.032;4.634;2023-07-22T08:25:22;101120.31;;;21.62
78859;BMP280;68210;52.032;4.634;2023-07-22T08:27:23;101115.38;;;21.50
78859;BMP280;68210;52.032;4.634;2023-07-22T08:29:24;101122.66;;;21.37
78859;BMP280;68210;52.032;4.634;2023-07-22T08:31:25;101112.75;;;21.39
78859;BMP280;68210;52.032;4.634;2023-07-22T08:33:25;101116.72;;;21.38
78859;BMP280;68210;52.032;4.634;2023-07-22T08:35:26;101114.22;;;21.18
78859;BMP280;68210;52.032;4.634;2023-07-22T08:37:27;101102.28;;;21.24
78859;BMP280;68210;52.032;4.634;2023-07-22T08:39:27;101111.25;;;21.02
78859;BMP280;68210;52.032;4.634;2023-07-22T08:41:27;101114.66;;;21.13
78859;BMP280;68210;52.032;4.634;2023-07-22T08:43:29;101098.38;;;21.22
78859;BMP280;68210;52.032;4.634;2023-07-22T08:45:31;101098.28;;;20.99
78859;BMP280;68210;52.032;4.634;2023-07-22T08:47:47;101101.78;;;21.03
78859;BMP280;68210;52.032;4.634;2023-07-22T08:49:52;101098.66;;;21.01
78859;BMP280;68210;52.032;4.634;2023-07-22T08:51:54;101101.03;;;20.99
78859;BMP280;68210;52.032;4.634;2023-07-22T08:53:58;101102.25;;;20.98
78859;BMP280;68210;52.032;4.634;2023-07-22T08:55:59;101101.31;;;21.08
78859;BMP280;68210;52.032;4.634;2023-07-22T08:57:59;101103.94;;;21.18
78859;BMP280;68210;52.032;4.634;2023-07-22T09:00:01;101102.78;;;21.16
78859;BMP280;68210;52.032;4.634;2023-07-22T09:02:02;101101.88;;;20.96
78859;BMP280;68210;52.032;4.634;2023-07-22T09:04:02;101110.34;;;21.12
78859;BMP280;68210;52.032;4.634;2023-07-22T09:06:04;101094.34;;;21.30
78859;BMP280;68210;52.032;4.634;2023-07-22T09:08:07;101099.22;;;21.19
78859;BMP280;68210;52.032;4.634;2023-07-22T09:10:08;101108.59;;;21.25
78859;BMP280;68210;52.032;4.634;2023-07-22T09:12:09;101112.56;;;21.24
78859;BMP280;68210;52.032;4.634;2023-07-22T09:14:09;101112.41;;;21.04
78859;BMP280;68210;52.032;4.634;2023-07-22T09:16:11;101106.50;;;21.02
78859;BMP280;68210;52.032;4.634;2023-07-22T09:18:11;101111.41;;;20.88
78859;BMP280;68210;52.032;4.634;2023-07-22T09:20:13;101109.81;;;20.91
78859;BMP280;68210;52.032;4.634;2023-07-22T09:22:17;101108.97;;;20.94
78859;BMP280;68210;52.032;4.634;2023-07-22T09:24:21;101104.19;;;20.98
78859;BMP280;68210;52.032;4.634;2023-07-22T09:26:22;101111.25;;;21.02
78859;BMP280;68210;52.032;4.634;2023-07-22T09:28:23;101088.47;;;21.28
78859;BMP280;68210;52.032;4.634;2023-07-22T09:30:27;101106.13;;;21.63
78859;BMP280;68210;52.032;4.634;2023-07-22T09:32:37;101108.06;;;21.66
78859;BMP280;68210;52.032;4.634;2023-07-22T09:34:37;101112.34;;;21.70
78859;BMP280;68210;52.032;4.634;2023-07-22T09:36:51;101093.88;;;21.64
78859;BMP280;68210;52.032;4.634;2023-07-22T09:39:02;101092.47;;;21.53
78859;BMP280;68210;52.032;4.634;2023-07-22T09:41:03;101093.13;;;21.34
78859;BMP280;68210;52.032;4.634;2023-07-22T09:43:03;101094.34;;;21.33
78859;BMP280;68210;52.032;4.634;2023-07-22T09:45:04;101087.00;;;21.20
78859;BMP280;68210;52.032;4.634;2023-07-22T09:47:06;101087.47;;;21.15
78859;BMP280;68210;52.032;4.634;2023-07-22T09:49:12;101088.94;;;21.19
78859;BMP280;68210;52.032;4.634;2023-07-22T09:51:14;101084.66;;;21.18
78859;BMP280;68210;52.032;4.634;2023-07-22T09:53:15;101089.47;;;21.11
78859;BMP280;68210;52.032;4.634;2023-07-22T09:55:18;101104.50;;;21.06
78859;BMP280;68210;52.032;4.634;2023-07-22T09:57:20;101101.41;;;21.01
78859;BMP280;68210;52.032;4.634;2023-07-22T09:59:21;101102.66;;;20.97
78859;BMP280;68210;52.032;4.634;2023-07-22T10:01:24;101119.31;;;20.86
78859;BMP280;68210;52.032;4.634;2023-07-22T10:03:28;101120.94;;;20.80
78859;BMP280;68210;52.032;4.634;2023-07-22T10:05:33;101110.31;;;20.39
78859;BMP280;68210;52.032;4.634;2023-07-22T10:07:35;101119.50;;;20.22
78859;BMP280;68210;52.032;4.634;2023-07-22T10:09:37;101125.28;;;19.88
78859;BMP280;68210;52.032;4.634;2023-07-22T10:11:39;101132.75;;;19.91
78859;BMP280;68210;52.032;4.634;2023-07-22T10:13:40;101135.81;;;20.00
78859;BMP280;68210;52.032;4.634;2023-07-22T10:15:40;101142.09;;;20.00
78859;BMP280;68210;52.032;4.634;2023-07-22T10:17:42;101143.84;;;19.70
78859;BMP280;68210;52.032;4.634;2023-07-22T10:19:44;101131.66;;;19.71
78859;BMP280;68210;52.032;4.634;2023-07-22T10:21:45;101134.03;;;19.69
78859;BMP280;68210;52.032;4.634;2023-07-22T10:23:47;101135.22;;;19.75
78859;BMP280;68210;52.032;4.634;2023-07-22T10:25:48;101136.75;;;19.83
78859;BMP280;68210;52.032;4.634;2023-07-22T10:27:51;101145.31;;;19.92
78859;BMP280;68210;52.032;4.634;2023-07-22T10:29:53;101143.66;;;20.01
78859;BMP280;68210;52.032;4.634;2023-07-22T10:31:54;101138.09;;;20.11
78859;BMP280;68210;52.032;4.634;2023-07-22T10:33:56;101138.06;;;20.15
78859;BMP280;68210;52.032;4.634;2023-07-22T10:36:05;101120.78;;;20.11
78859;BMP280;68210;52.032;4.634;2023-07-22T10:38:13;101131.13;;;19.97
78859;BMP280;68210;52.032;4.634;2023-07-22T10:42:27;101142.19;;;19.90
78859;BMP280;68210;52.032;4.634;2023-07-22T10:44:31;101148.47;;;19.94
78859;BMP280;68210;52.032;4.634;2023-07-22T10:48:37;101122.31;;;20.19
78859;BMP280;68210;52.032;4.634;2023-07-22T10:50:43;101124.97;;;20.29
78859;BMP280;68210;52.032;4.634;2023-07-22T10:52:44;101118.03;;;20.58
78859;BMP280;68210;52.032;4.634;2023-07-22T10:54:45;101122.50;;;20.81
78859;BMP280;68210;52.032;4.634;2023-07-22T10:56:45;101132.56;;;20.98
78859;BMP280;68210;52.032;4.634;2023-07-22T11:00:46;101120.66;;;21.37
78859;BMP280;68210;52.032;4.634;2023-07-22T11:03:13;101119.38;;;21.45
78859;BMP280;68210;52.032;4.634;2023-07-22T11:05:16;101109.81;;;21.53
78859;BMP280;68210;52.032;4.634;2023-07-22T11:07:29;101110.66;;;21.50
78859;BMP280;68210;52.032;4.634;2023-07-22T11:13:38;101101.06;;;21.29
78859;BMP280;68210;52.032;4.634;2023-07-22T11:15:47;101104.03;;;21.44
78859;BMP280;68210;52.032;4.634;2023-07-22T11:17:48;101100.31;;;21.54
78859;BMP280;68210;52.032;4.634;2023-07-22T11:19:48;101094.72;;;21.61
78859;BMP280;68210;52.032;4.634;2023-07-22T11:21:50;101097.84;;;21.63
78859;BMP280;68210;52.032;4.634;2023-07-22T11:23:51;101094.41;;;21.82
78859;BMP280;68210;52.032;4.634;2023-07-22T11:25:51;101095.72;;;22.00
78859;BMP280;68210;52.032;4.634;2023-07-22T11:27:53;101080.47;;;21.89
78859;BMP280;68210;52.032;4.634;2023-07-22T11:29:53;101080.84;;;21.91
78859;BMP280;68210;52.032;4.634;2023-07-22T11:31:57;101085.84;;;21.99
78859;BMP280;68210;52.032;4.634;2023-07-22T11:33:57;101083.91;;;21.96
78859;BMP280;68210;52.032;4.634;2023-07-22T11:35:58;101085.66;;;21.87
78859;BMP280;68210;52.032;4.634;2023-07-22T11:38:03;101080.94;;;21.84
78859;BMP280;68210;52.032;4.634;2023-07-22T11:40:04;101079.31;;;21.90